Time;durP1;ratioP1;P1;durP2;ratioP2;P2;SDS_P1;SDS_P2;PMS_P1;PMS_P2;Temp;Humidity;BMP_temperature;BMP_pressure;BME280_temperature;BME280_humidity;BME280_pressure;Samples;Min_cycle;Max_cycle;Signal;HPM_P1;HPM_P2
2021/06/08 00:01:42;;;;;;;7.22;5.60;;;18.00;93.10;;;;;;5050905;28;20165;-71
2021/06/08 00:04:09;;;;;;;7.90;6.18;;;18.00;93.10;;;;;;5061694;28;20105;-71
2021/06/08 00:06:35;;;;;;;6.95;5.43;;;18.00;93.20;;;;;;5056935;28;20072;-71
2021/06/08 00:09:03;;;;;;;6.47;5.60;;;18.00;93.20;;;;;;5059634;28;20519;-71
2021/06/08 00:11:30;;;;;;;7.57;5.20;;;18.00;93.30;;;;;;5050308;28;20052;-70
2021/06/08 00:13:57;;;;;;;6.97;5.38;;;17.90;93.20;;;;;;5053568;28;20088;-71
2021/06/08 00:16:24;;;;;;;6.95;5.82;;;17.90;93.30;;;;;;5053657;28;20444;-71
2021/06/08 00:18:51;;;;;;;7.18;5.72;;;17.90;93.30;;;;;;5059324;28;20053;-71
2021/06/08 00:21:18;;;;;;;7.60;5.65;;;17.80;93.30;;;;;;5046505;28;20084;-70
2021/06/08 00:23:45;;;;;;;7.97;5.53;;;17.80;93.30;;;;;;5053755;28;20077;-70
2021/06/08 00:26:11;;;;;;;8.15;5.20;;;17.80;93.40;;;;;;5062655;28;20057;-71
2021/06/08 00:28:38;;;;;;;6.78;5.35;;;17.80;93.40;;;;;;5055850;28;20044;-71
2021/06/08 00:31:05;;;;;;;6.85;5.18;;;17.80;93.50;;;;;;5051554;28;20111;-71
2021/06/08 00:33:32;;;;;;;8.10;5.55;;;17.80;93.50;;;;;;5057724;28;20106;-71
2021/06/08 00:35:58;;;;;;;7.05;5.60;;;17.70;93.40;;;;;;5034943;28;20571;-70
2021/06/08 00:38:25;;;;;;;7.53;5.30;;;17.70;93.50;;;;;;5048561;28;20073;-70
2021/06/08 00:40:52;;;;;;;6.20;5.03;;;17.70;93.50;;;;;;5049285;28;20073;-71
2021/06/08 00:43:26;;;;;;;7.28;5.10;;;17.60;93.50;;;;;;5061565;28;20091;-70
2021/06/08 00:45:54;;;;;;;8.23;5.05;;;17.60;93.50;;;;;;5052701;28;20134;-70
2021/06/08 00:48:21;;;;;;;7.43;5.32;;;17.60;93.50;;;;;;5050699;28;20053;-71
2021/06/08 00:50:49;;;;;;;7.18;5.20;;;17.60;93.60;;;;;;5049682;28;20088;-71
2021/06/08 00:53:16;;;;;;;6.55;4.97;;;17.60;93.60;;;;;;5042459;28;20109;-71
2021/06/08 00:55:43;;;;;;;7.43;5.30;;;17.50;93.60;;;;;;5047469;28;20087;-70
2021/06/08 00:58:10;;;;;;;7.32;5.28;;;17.40;93.60;;;;;;5063430;28;20076;-71
2021/06/08 01:00:36;;;;;;;7.97;5.78;;;17.40;93.60;;;;;;5058950;28;20147;-70
2021/06/08 01:03:04;;;;;;;7.78;5.85;;;17.40;93.60;;;;;;5044810;28;20045;-71
2021/06/08 01:05:31;;;;;;;8.25;5.88;;;17.30;93.60;;;;;;5051858;28;20060;-71
2021/06/08 01:07:58;;;;;;;7.32;5.75;;;17.30;93.60;;;;;;5044299;28;20084;-71
2021/06/08 01:10:25;;;;;;;6.68;5.55;;;17.30;93.70;;;;;;5054310;28;20503;-70
2021/06/08 01:12:52;;;;;;;7.07;5.50;;;17.30;93.70;;;;;;5046595;28;20118;-70
2021/06/08 01:15:21;;;;;;;6.97;5.05;;;17.20;93.70;;;;;;5047848;28;20144;-70
2021/06/08 01:17:48;;;;;;;6.75;5.60;;;17.20;93.80;;;;;;5046540;28;20076;-71
2021/06/08 01:20:17;;;;;;;6.47;5.13;;;17.10;93.80;;;;;;5034447;28;20041;-71
2021/06/08 01:22:44;;;;;;;13.15;5.40;;;17.10;93.80;;;;;;5032530;28;20139;-70
2021/06/08 01:25:11;;;;;;;7.30;5.35;;;17.10;93.80;;;;;;5049414;28;20048;-71
2021/06/08 01:27:40;;;;;;;7.87;5.47;;;17.10;93.80;;;;;;5044935;28;20084;-71
2021/06/08 01:30:08;;;;;;;6.75;5.25;;;17.00;93.90;;;;;;5053046;28;20132;-71
2021/06/08 01:32:37;;;;;;;6.65;5.10;;;17.00;93.90;;;;;;5051571;28;20130;-71
2021/06/08 01:35:05;;;;;;;7.35;5.28;;;16.90;93.90;;;;;;5053606;28;20044;-71
2021/06/08 01:37:33;;;;;;;7.30;5.38;;;17.00;94.00;;;;;;5046448;28;20077;-70
2021/06/08 01:40:00;;;;;;;19.73;5.53;;;16.90;94.00;;;;;;5045092;28;20080;-70
2021/06/08 01:42:28;;;;;;;6.90;5.60;;;16.90;94.30;;;;;;5048814;28;20052;-71
2021/06/08 01:44:55;;;;;;;8.35;5.95;;;16.90;94.00;;;;;;5034763;28;20467;-71
2021/06/08 01:47:21;;;;;;;7.60;5.30;;;16.90;94.10;;;;;;5054348;28;20144;-70
2021/06/08 01:49:48;;;;;;;8.13;5.30;;;16.80;94.00;;;;;;5053142;28;20480;-70
2021/06/08 01:52:21;;;;;;;6.82;4.88;;;16.80;94.00;;;;;;5032564;28;20048;-71
2021/06/08 01:55:02;;;;;;;6.63;5.05;;;16.80;94.10;;;;;;5055810;28;20080;-70
2021/06/08 01:57:39;;;;;;;7.07;5.18;;;16.80;94.10;;;;;;5051440;28;20088;-70
2021/06/08 02:00:17;;;;;;;6.10;4.47;;;16.70;94.20;;;;;;5052308;28;20138;-70
2021/06/08 02:03:04;;;;;;;7.38;5.20;;;16.70;94.10;;;;;;5010724;28;20073;-70
2021/06/08 02:05:55;;;;;;;5.85;4.63;;;16.70;94.10;;;;;;5026040;28;20161;-70
2021/06/08 02:08:53;;;;;;;7.10;4.50;;;16.70;94.10;;;;;;5029912;28;20122;-70
2021/06/08 02:11:22;;;;;;;6.55;5.10;;;16.60;94.10;;;;;;5033924;28;20080;-70
2021/06/08 02:14:03;;;;;;;6.20;4.70;;;16.60;94.10;;;;;;5036273;28;20150;-70
2021/06/08 02:16:38;;;;;;;6.93;4.80;;;16.60;94.20;;;;;;5044203;28;20099;-70
2021/06/08 02:19:06;;;;;;;6.40;4.90;;;16.60;94.20;;;;;;5018332;28;20053;-70
2021/06/08 02:21:39;;;;;;;6.30;5.00;;;16.50;94.20;;;;;;5032953;28;20042;-70
2021/06/08 02:24:09;;;;;;;6.68;5.10;;;16.50;94.20;;;;;;5029074;28;20447;-70
2021/06/08 02:26:40;;;;;;;6.63;4.97;;;16.50;94.20;;;;;;5019871;28;20476;-70
2021/06/08 02:29:09;;;;;;;7.47;4.95;;;16.50;94.20;;;;;;5033141;28;20077;-70
2021/06/08 02:31:39;;;;;;;6.13;4.97;;;16.50;94.20;;;;;;5017828;28;20077;-70
2021/06/08 02:34:06;;;;;;;7.53;5.43;;;16.50;94.20;;;;;;5034769;28;20052;-70
2021/06/08 02:36:33;;;;;;;8.20;5.07;;;16.50;94.30;;;;;;5029678;28;20159;-70
2021/06/08 02:39:00;;;;;;;6.55;5.03;;;16.40;94.20;;;;;;5038095;28;20335;-70
2021/06/08 02:41:27;;;;;;;6.50;5.15;;;16.40;94.30;;;;;;5032655;28;20107;-70
2021/06/08 02:44:18;;;;;;;7.45;5.18;;;16.30;94.30;;;;;;5026258;28;20073;-70
2021/06/08 02:46:45;;;;;;;7.07;5.47;;;16.30;94.50;;;;;;5013942;28;20083;-70
2021/06/08 02:49:12;;;;;;;8.00;6.00;;;16.20;94.50;;;;;;5023362;28;20417;-70
2021/06/08 02:51:40;;;;;;;7.80;5.93;;;16.20;94.60;;;;;;5020172;28;20077;-70
2021/06/08 02:54:07;;;;;;;6.80;5.35;;;16.10;94.70;;;;;;5023517;28;20092;-70
2021/06/08 02:56:43;;;;;;;7.45;5.75;;;16.10;94.70;;;;;;5026696;28;20073;-70
2021/06/08 02:59:31;;;;;;;7.32;5.45;;;16.00;94.70;;;;;;5042537;28;20120;-70
2021/06/08 03:01:58;;;;;;;10.15;6.28;;;15.90;94.70;;;;;;5038296;28;20052;-70
2021/06/08 03:04:38;;;;;;;8.75;6.05;;;15.80;94.70;;;;;;5047087;28;20038;-70
2021/06/08 03:07:08;;;;;;;7.65;5.70;;;15.80;94.90;;;;;;5034099;28;20163;-71
2021/06/08 03:09:40;;;;;;;8.45;5.80;;;15.70;95.10;;;;;;5046232;28;20144;-70
2021/06/08 03:12:16;;;;;;;8.27;5.97;;;15.70;95.20;;;;;;5041024;28;20418;-70
2021/06/08 03:14:45;;;;;;;13.30;6.85;;;15.60;95.20;;;;;;5043555;28;20413;-70
2021/06/08 03:17:15;;;;;;;7.90;5.60;;;15.60;95.20;;;;;;5042959;28;20045;-70
2021/06/08 03:19:45;;;;;;;7.25;5.18;;;15.60;95.20;;;;;;5050864;28;20044;-71
2021/06/08 03:22:16;;;;;;;7.63;5.35;;;15.50;95.20;;;;;;5047157;28;20091;-71
2021/06/08 03:24:46;;;;;;;7.55;5.15;;;15.50;95.10;;;;;;5057620;28;20117;-70
2021/06/08 03:27:13;;;;;;;7.45;5.25;;;15.50;95.10;;;;;;5056865;28;20087;-70
2021/06/08 03:29:41;;;;;;;9.50;5.23;;;15.50;95.10;;;;;;5055433;28;20500;-70
2021/06/08 03:32:09;;;;;;;7.07;4.97;;;15.50;95.00;;;;;;5048115;28;20618;-69
2021/06/08 03:34:37;;;;;;;6.65;4.75;;;15.50;95.00;;;;;;5042967;28;20083;-69
2021/06/08 03:37:05;;;;;;;6.82;5.05;;;15.50;95.00;;;;;;5052125;28;20110;-70
2021/06/08 03:39:33;;;;;;;7.55;4.47;;;15.40;94.90;;;;;;5046350;28;20049;-70
2021/06/08 03:42:01;;;;;;;6.90;4.78;;;15.40;94.90;;;;;;5049316;28;20060;-70
2021/06/08 03:44:28;;;;;;;6.95;5.00;;;15.40;94.90;;;;;;5049294;28;20072;-70
2021/06/08 03:46:55;;;;;;;6.50;5.10;;;15.40;94.90;;;;;;5053171;28;20423;-70
2021/06/08 03:49:22;;;;;;;7.45;5.43;;;15.40;95.00;;;;;;5047405;28;20073;-70
2021/06/08 03:51:52;;;;;;;6.95;4.95;;;15.30;95.00;;;;;;5050945;28;20080;-70
2021/06/08 03:54:19;;;;;;;8.00;5.55;;;15.40;95.10;;;;;;5040989;28;20085;-70
2021/06/08 03:56:48;;;;;;;8.75;5.25;;;15.40;95.20;;;;;;5045791;28;20080;-70
2021/06/08 03:59:19;;;;;;;7.72;5.63;;;15.40;95.30;;;;;;5063257;28;20071;-70
2021/06/08 04:01:48;;;;;;;6.90;5.35;;;15.40;95.40;;;;;;5037437;28;20177;-70
2021/06/08 04:04:16;;;;;;;5.68;4.60;;;15.40;95.50;;;;;;5057148;28;20049;-70
2021/06/08 04:06:45;;;;;;;6.60;4.95;;;15.40;95.60;;;;;;5047056;28;20069;-70
2021/06/08 04:09:12;;;;;;;7.18;5.70;;;15.50;95.60;;;;;;5048159;28;20080;-70
2021/06/08 04:11:41;;;;;;;7.15;5.30;;;15.50;95.70;;;;;;5044979;28;20496;-70
2021/06/08 04:14:11;;;;;;;6.00;4.65;;;15.60;95.80;;;;;;5040308;28;20464;-71
2021/06/08 04:16:39;;;;;;;9.18;5.25;;;15.60;95.80;;;;;;5043539;28;20140;-71
2021/06/08 04:19:10;;;;;;;8.15;5.28;;;15.60;95.80;;;;;;5034555;28;20160;-70
2021/06/08 04:21:37;;;;;;;8.05;5.78;;;15.70;96.00;;;;;;5039297;28;20441;-71
2021/06/08 04:24:06;;;;;;;6.88;5.35;;;15.70;96.00;;;;;;5052068;28;20431;-71
2021/06/08 04:26:33;;;;;;;7.50;5.20;;;15.70;96.10;;;;;;5044475;28;20076;-71
2021/06/08 04:29:01;;;;;;;6.15;5.18;;;15.70;96.20;;;;;;5039278;28;20083;-70
2021/06/08 04:31:31;;;;;;;6.10;4.83;;;15.70;96.30;;;;;;5040119;28;20519;-71
2021/06/08 04:33:58;;;;;;;6.13;4.50;;;15.80;97.40;;;;;;5045389;28;20132;-71
2021/06/08 04:36:27;;;;;;;5.90;4.63;;;15.80;99.90;;;;;;5040027;28;20076;-71
2021/06/08 04:38:54;;;;;;;6.43;4.68;;;15.80;99.90;;;;;;5046844;28;20080;-70
2021/06/08 04:41:21;;;;;;;6.47;5.00;;;15.90;99.90;;;;;;5050273;28;20045;-70
2021/06/08 04:43:48;;;;;;;6.63;5.07;;;15.90;99.70;;;;;;5042603;28;20045;-71
2021/06/08 04:46:15;;;;;;;8.07;5.38;;;15.90;99.40;;;;;;5043976;28;20430;-71
2021/06/08 04:48:44;;;;;;;7.20;5.07;;;16.00;98.80;;;;;;5064834;28;20045;-71
2021/06/08 04:51:11;;;;;;;8.15;5.60;;;16.00;98.50;;;;;;5050841;28;20080;-71
2021/06/08 04:53:40;;;;;;;6.97;4.93;;;16.10;98.60;;;;;;5044956;28;20050;-71
2021/06/08 04:56:08;;;;;;;8.38;5.45;;;16.10;98.70;;;;;;5044020;28;20080;-71
2021/06/08 04:58:36;;;;;;;8.15;5.47;;;16.20;98.70;;;;;;5066375;28;20535;-71
2021/06/08 05:01:12;;;;;;;7.47;6.03;;;16.20;98.70;;;;;;5039136;28;20578;-71
2021/06/08 05:03:41;;;;;;;7.65;5.80;;;16.30;98.80;;;;;;5040231;28;20393;-71
2021/06/08 05:06:16;;;;;;;6.45;5.32;;;16.40;98.80;;;;;;5046553;28;20134;-71
2021/06/08 05:08:50;;;;;;;7.97;5.75;;;16.50;98.90;;;;;;5053947;28;20102;-71
2021/06/08 05:11:41;;;;;;;7.22;5.75;;;16.60;99.00;;;;;;5039428;28;20063;-71
2021/06/08 05:14:10;;;;;;;8.30;5.60;;;16.70;99.10;;;;;;5037829;28;20049;-71
2021/06/08 05:16:39;;;;;;;9.07;5.72;;;16.70;99.10;;;;;;5042489;28;20104;-71
2021/06/08 05:19:08;;;;;;;8.07;6.07;;;16.80;99.10;;;;;;5046708;28;20079;-72
2021/06/08 05:21:41;;;;;;;7.70;5.82;;;16.90;99.50;;;;;;5071102;28;20041;-72
2021/06/08 05:24:13;;;;;;;7.10;5.13;;;17.00;99.20;;;;;;5046287;28;20046;-72
2021/06/08 05:26:43;;;;;;;6.95;5.38;;;17.10;99.80;;;;;;5056693;28;20114;-71
2021/06/08 05:29:11;;;;;;;10.73;6.05;;;17.10;99.90;;;;;;5076145;28;20125;-72
2021/06/08 05:31:38;;;;;;;8.40;6.03;;;17.20;99.90;;;;;;5036133;28;20139;-72
2021/06/08 05:34:05;;;;;;;6.93;5.13;;;17.30;99.90;;;;;;5039074;28;20118;-71
2021/06/08 05:36:33;;;;;;;8.88;5.50;;;17.40;99.90;;;;;;5039005;28;20432;-71
2021/06/08 05:39:05;;;;;;;9.23;5.40;;;17.50;99.90;;;;;;5048874;28;20122;-71
2021/06/08 05:41:32;;;;;;;6.75;5.05;;;17.60;99.90;;;;;;5040526;28;20041;-71
2021/06/08 05:44:00;;;;;;;8.57;4.80;;;17.80;99.90;;;;;;5042078;28;20121;-71
2021/06/08 05:46:28;;;;;;;6.25;4.93;;;17.90;99.90;;;;;;5044020;28;20099;-71
2021/06/08 05:48:55;;;;;;;6.00;4.63;;;18.10;99.90;;;;;;5040421;28;20084;-72
2021/06/08 05:51:23;;;;;;;7.25;4.45;;;18.20;99.90;;;;;;5040725;28;20037;-71
2021/06/08 05:53:50;;;;;;;7.07;4.40;;;18.30;99.90;;;;;;5047584;28;20088;-72
2021/06/08 05:56:18;;;;;;;5.77;3.77;;;18.40;99.90;;;;;;5039205;28;20102;-72
2021/06/08 05:58:45;;;;;;;6.45;4.00;;;18.40;99.80;;;;;;5051006;28;20103;-72
2021/06/08 06:01:13;;;;;;;6.60;3.43;;;18.50;99.80;;;;;;5075082;28;20562;-71
2021/06/08 06:03:41;;;;;;;6.03;4.00;;;18.60;99.80;;;;;;5042695;28;20119;-72
2021/06/08 06:06:08;;;;;;;;;;;18.70;99.70;;;;;;5039619;28;20073;-72
2021/06/08 06:08:35;;;;;;;4.70;2.95;;;18.80;99.80;;;;;;5039176;28;19960;-71
2021/06/08 06:11:05;;;;;;;5.40;3.60;;;18.90;99.70;;;;;;5039553;28;20125;-72
2021/06/08 06:13:57;;;;;;;6.18;3.33;;;19.00;99.70;;;;;;5077770;28;20060;-71
2021/06/08 06:16:25;;;;;;;5.15;3.00;;;19.00;99.90;;;;;;5031081;28;20076;-72
2021/06/08 06:18:53;;;;;;;5.75;3.15;;;19.10;99.90;;;;;;5035213;28;20042;-71
2021/06/08 06:21:20;;;;;;;4.32;2.88;;;19.20;99.90;;;;;;5041394;28;20041;-71
2021/06/08 06:23:47;;;;;;;4.82;2.92;;;19.20;99.90;;;;;;5054056;28;20076;-71
2021/06/08 06:26:14;;;;;;;5.50;2.60;;;19.30;99.80;;;;;;5055395;28;20475;-71
2021/06/08 06:28:42;;;;;;;5.43;2.50;;;19.40;99.60;;;;;;5046476;28;20084;-71
2021/06/08 06:31:09;;;;;;;3.65;2.50;;;19.40;99.40;;;;;;5053784;28;20103;-71
2021/06/08 06:33:37;;;;;;;6.00;2.27;;;19.50;99.40;;;;;;5054826;28;20044;-71
2021/06/08 06:36:05;;;;;;;3.23;2.27;;;19.60;99.40;;;;;;5070126;28;20078;-71
2021/06/08 06:38:32;;;;;;;4.88;2.00;;;19.70;99.40;;;;;;5044786;28;20103;-71
2021/06/08 06:41:04;;;;;;;5.23;2.50;;;19.70;99.30;;;;;;5042042;28;20057;-71
2021/06/08 06:43:35;;;;;;;2.97;1.90;;;19.90;99.20;;;;;;5039098;28;20512;-72
2021/06/08 06:46:02;;;;;;;3.38;1.63;;;19.90;99.10;;;;;;5040920;28;20080;-72
2021/06/08 06:48:29;;;;;;;2.33;1.67;;;20.00;99.00;;;;;;5048015;28;20088;-71
2021/06/08 06:50:57;;;;;;;6.28;1.80;;;20.00;99.30;;;;;;5040001;28;20049;-71
2021/06/08 06:53:24;;;;;;;4.43;1.70;;;20.10;99.40;;;;;;5035699;28;20060;-71
2021/06/08 06:55:54;;;;;;;2.78;1.48;;;20.10;99.30;;;;;;5047299;28;20655;-71
2021/06/08 06:58:22;;;;;;;1.92;1.20;;;20.20;99.10;;;;;;5044635;28;20053;-72
2021/06/08 07:00:52;;;;;;;2.47;1.25;;;20.30;98.70;;;;;;5047068;28;20085;-72
2021/06/08 07:03:26;;;;;;;3.75;1.58;;;20.40;98.50;;;;;;5031420;28;20041;-72
2021/06/08 07:05:53;;;;;;;1.98;1.17;;;20.40;98.50;;;;;;5025340;28;20096;-72
2021/06/08 07:08:25;;;;;;;3.10;1.17;;;20.60;98.30;;;;;;5027328;28;20041;-71
2021/06/08 07:10:53;;;;;;;1.98;1.20;;;20.70;98.30;;;;;;5027320;28;20377;-72
2021/06/08 07:13:21;;;;;;;1.73;1.10;;;20.70;98.10;;;;;;5026600;28;20050;-72
2021/06/08 07:15:48;;;;;;;;;;;20.80;98.10;;;;;;5025117;28;20422;-71
2021/06/08 07:18:15;;;;;;;2.97;1.05;;;20.80;98.00;;;;;;5028900;28;19921;-71
2021/06/08 07:20:43;;;;;;;3.60;1.00;;;20.90;97.80;;;;;;5029673;28;20111;-71
2021/06/08 07:23:16;;;;;;;2.42;0.90;;;20.90;97.70;;;;;;5013455;28;20390;-71
2021/06/08 07:25:43;;;;;;;2.72;1.30;;;21.00;97.60;;;;;;5027304;28;20076;-72
2021/06/08 07:28:11;;;;;;;2.20;1.10;;;21.00;98.60;;;;;;5029293;28;20061;-72
2021/06/08 07:30:42;;;;;;;2.55;1.10;;;21.10;98.60;;;;;;5035911;28;21212;-71
2021/06/08 07:33:21;;;;;;;3.05;1.20;;;21.10;98.10;;;;;;5029660;28;20164;-71
2021/06/08 07:36:10;;;;;;;2.83;1.27;;;21.10;97.30;;;;;;5024337;28;20071;-71
2021/06/08 07:39:01;;;;;;;2.30;1.10;;;21.10;96.80;;;;;;5028160;28;20140;-71
2021/06/08 07:41:36;;;;;;;3.47;1.20;;;21.10;96.70;;;;;;5022572;28;20145;-71
2021/06/08 07:44:14;;;;;;;4.88;1.25;;;21.20;96.60;;;;;;5023030;28;20081;-71
2021/06/08 07:46:42;;;;;;;3.27;1.10;;;21.20;96.40;;;;;;5015550;28;20092;-71
2021/06/08 07:49:11;;;;;;;1.75;0.90;;;21.20;96.50;;;;;;5015032;28;20343;-71
2021/06/08 07:52:00;;;;;;;2.30;1.20;;;21.30;96.40;;;;;;5102548;27;20504;-72
2021/06/08 07:54:28;;;;;;;2.75;0.95;;;21.40;96.50;;;;;;5078556;28;20060;-72
2021/06/08 07:56:56;;;;;;;;;;;21.50;96.50;;;;;;5061103;28;20049;-73
2021/06/08 07:59:23;;;;;;;1.23;0.90;;;21.50;95.50;;;;;;5060793;28;19959;-72
2021/06/08 08:01:49;;;;;;;1.67;1.02;;;21.50;95.90;;;;;;5057726;28;20072;-72
2021/06/08 08:04:22;;;;;;;2.45;1.20;;;21.50;95.90;;;;;;5063608;28;20084;-72
2021/06/08 08:06:53;;;;;;;3.20;1.20;;;21.60;96.60;;;;;;5061580;28;20087;-73
2021/06/08 08:09:20;;;;;;;2.45;1.20;;;21.70;96.10;;;;;;5065111;28;20582;-72
2021/06/08 08:11:51;;;;;;;1.05;0.90;;;21.70;95.80;;;;;;5059960;28;20488;-72
2021/06/08 08:14:22;;;;;;;2.83;1.30;;;21.70;95.20;;;;;;5063879;28;20077;-72
2021/06/08 08:16:49;;;;;;;1.77;1.10;;;21.70;94.90;;;;;;5062703;28;20489;-72
2021/06/08 08:19:20;;;;;;;2.95;1.10;;;21.80;95.00;;;;;;5064893;28;20141;-73
2021/06/08 08:21:48;;;;;;;2.63;1.30;;;21.80;94.90;;;;;;5063075;28;20088;-72
2021/06/08 08:24:15;;;;;;;1.88;1.30;;;21.80;94.40;;;;;;5064289;28;20102;-72
2021/06/08 08:26:41;;;;;;;2.15;1.20;;;21.80;94.70;;;;;;5063479;28;20480;-72
2021/06/08 08:29:08;;;;;;;1.60;1.02;;;21.80;95.00;;;;;;5064424;28;20057;-72
2021/06/08 08:31:37;;;;;;;2.75;1.20;;;21.80;94.80;;;;;;5062022;28;20076;-73
2021/06/08 08:34:05;;;;;;;6.43;1.27;;;21.80;94.20;;;;;;5062933;28;20148;-72
2021/06/08 08:36:36;;;;;;;4.63;1.35;;;21.80;93.80;;;;;;5058761;28;20057;-72
2021/06/08 08:39:05;;;;;;;2.33;1.17;;;21.80;93.80;;;;;;5058197;28;20045;-72
2021/06/08 08:41:32;;;;;;;2.13;0.95;;;21.90;94.00;;;;;;5062836;28;20719;-72
2021/06/08 08:44:00;;;;;;;2.50;1.05;;;22.00;94.10;;;;;;5060506;28;20433;-72
2021/06/08 08:46:27;;;;;;;3.33;1.10;;;22.00;94.10;;;;;;5053516;28;20090;-72
2021/06/08 08:48:55;;;;;;;1.77;1.08;;;22.10;94.00;;;;;;5062101;28;20052;-72
2021/06/08 08:51:24;;;;;;;1.95;1.00;;;22.10;93.10;;;;;;5056910;28;20080;-72
2021/06/08 08:53:56;;;;;;;2.13;1.08;;;22.10;93.50;;;;;;5062379;28;20481;-72
2021/06/08 08:56:33;;;;;;;1.55;1.10;;;22.20;93.60;;;;;;5060888;28;20045;-72
2021/06/08 08:59:10;;;;;;;3.15;1.40;;;22.20;93.80;;;;;;5064828;28;20077;-72
2021/06/08 09:01:38;;;;;;;1.95;1.10;;;22.30;93.80;;;;;;5056772;28;20140;-72
2021/06/08 09:04:07;;;;;;;2.00;1.45;;;22.30;93.60;;;;;;5051363;28;20534;-73
2021/06/08 09:06:34;;;;;;;2.50;1.35;;;22.40;93.30;;;;;;5047522;28;20053;-73
2021/06/08 09:09:03;;;;;;;2.83;1.30;;;22.40;93.30;;;;;;5052598;28;20110;-72
2021/06/08 09:11:32;;;;;;;2.53;1.10;;;22.30;93.20;;;;;;5049345;28;20080;-73
2021/06/08 09:14:00;;;;;;;1.95;1.10;;;22.20;93.20;;;;;;5050416;28;20049;-72
2021/06/08 09:16:27;;;;;;;3.15;1.20;;;22.20;94.30;;;;;;5047967;28;20486;-72
2021/06/08 09:18:55;;;;;;;2.63;1.00;;;22.30;94.70;;;;;;5052186;28;20433;-72
2021/06/08 09:21:28;;;;;;;3.30;1.10;;;22.40;94.50;;;;;;5050647;28;20509;-72
2021/06/08 09:24:27;;;;;;;2.95;1.23;;;22.50;93.90;;;;;;5045087;28;20091;-72
2021/06/08 09:26:59;;;;;;;2.53;1.30;;;22.50;93.40;;;;;;5044422;28;20472;-72
2021/06/08 09:29:28;;;;;;;2.17;1.35;;;22.40;93.10;;;;;;5048814;28;20084;-72
2021/06/08 09:32:24;;;;;;;2.33;1.20;;;22.50;93.10;;;;;;5051838;28;20080;-72
2021/06/08 09:34:54;;;;;;;4.30;1.48;;;22.50;93.00;;;;;;5050689;28;20105;-72
2021/06/08 09:37:40;;;;;;;4.38;1.55;;;22.60;93.00;;;;;;5043575;28;20041;-72
2021/06/08 09:40:19;;;;;;;2.38;1.40;;;22.70;92.90;;;;;;5061778;28;20084;-73
2021/06/08 09:42:48;;;;;;;3.67;1.42;;;22.80;93.50;;;;;;5040579;28;20103;-72
2021/06/08 09:45:22;;;;;;;1.75;1.30;;;22.90;93.20;;;;;;5045520;28;21039;-72
2021/06/08 09:48:00;;;;;;;1.88;1.40;;;22.90;92.80;;;;;;5041361;28;20084;-73
2021/06/08 09:50:31;;;;;;;2.22;1.30;;;23.00;92.70;;;;;;5049601;28;20492;-72
2021/06/08 09:53:15;;;;;;;3.25;1.38;;;23.10;92.70;;;;;;5048525;28;20118;-70
2021/06/08 09:55:48;;;;;;;1.60;1.00;;;23.10;92.80;;;;;;5044720;28;20131;-70
2021/06/08 09:58:15;;;;;;;2.78;1.33;;;23.20;92.60;;;;;;5047892;28;20451;-70
2021/06/08 10:00:42;;;;;;;1.85;1.30;;;23.20;92.40;;;;;;5048949;28;20202;-71
2021/06/08 10:03:37;;;;;;;5.10;1.55;;;23.20;92.20;;;;;;5044530;28;20465;-70
2021/06/08 10:06:08;;;;;;;3.65;1.65;;;23.20;91.40;;;;;;5076899;28;20147;-70
2021/06/08 10:08:55;;;;;;;2.28;1.30;;;23.20;91.10;;;;;;5048120;28;20140;-70
2021/06/08 10:11:24;;;;;;;2.15;1.58;;;23.10;91.30;;;;;;5052096;28;20072;-70
2021/06/08 10:13:58;;;;;;;4.47;1.40;;;23.10;91.60;;;;;;5045266;28;20049;-70
2021/06/08 10:16:30;;;;;;;1.98;1.35;;;23.20;91.60;;;;;;5040166;28;20396;-71
2021/06/08 10:18:59;;;;;;;2.67;1.40;;;23.30;91.50;;;;;;5040146;28;20124;-70
2021/06/08 10:21:40;;;;;;;1.88;1.17;;;23.30;92.80;;;;;;5039800;28;20126;-74
2021/06/08 10:24:11;;;;;;;3.63;1.30;;;23.30;92.20;;;;;;5044185;28;20555;-70
2021/06/08 10:26:40;;;;;;;1.83;1.38;;;23.40;91.70;;;;;;5047998;28;20390;-70
2021/06/08 10:29:08;;;;;;;3.72;1.40;;;23.40;91.40;;;;;;5045876;28;20103;-70
2021/06/08 10:31:38;;;;;;;2.58;1.20;;;23.50;91.00;;;;;;5045450;28;20083;-70
2021/06/08 10:34:07;;;;;;;2.92;1.33;;;23.50;91.00;;;;;;5046799;28;20524;-70
2021/06/08 10:36:38;;;;;;;1.95;1.50;;;23.50;91.10;;;;;;5046807;28;20056;-70
2021/06/08 10:39:07;;;;;;;2.63;1.58;;;23.60;91.40;;;;;;5043915;28;20076;-70
2021/06/08 10:41:36;;;;;;;2.28;1.08;;;23.60;91.10;;;;;;5045547;28;20064;-70
2021/06/08 10:44:05;;;;;;;4.30;1.70;;;23.70;91.00;;;;;;5048014;28;20473;-70
2021/06/08 10:46:44;;;;;;;4.75;1.90;;;23.70;90.70;;;;;;5043277;28;20059;-70
2021/06/08 10:49:11;;;;;;;2.38;1.75;;;23.70;90.90;;;;;;5046962;28;20048;-70
2021/06/08 10:51:39;;;;;;;2.50;1.67;;;23.70;90.60;;;;;;5045283;28;20132;-71
2021/06/08 10:54:17;;;;;;;3.45;1.73;;;23.70;90.40;;;;;;5046608;28;20077;-70
2021/06/08 10:56:59;;;;;;;2.85;1.70;;;23.80;90.30;;;;;;5077110;28;20412;-71
2021/06/08 10:59:36;;;;;;;2.72;1.50;;;23.80;90.30;;;;;;5046523;28;20094;-69
2021/06/08 11:02:05;;;;;;;2.75;1.90;;;23.80;90.40;;;;;;5043865;28;20044;-70
2021/06/08 11:04:50;;;;;;;2.78;1.73;;;23.90;90.60;;;;;;5045135;28;20068;-70
2021/06/08 11:07:50;;;;;;;3.60;1.88;;;23.90;90.00;;;;;;5043228;28;20081;-69
2021/06/08 11:10:44;;;;;;;2.63;1.30;;;24.00;89.50;;;;;;5043480;28;20107;-71
2021/06/08 11:13:16;;;;;;;2.75;1.20;;;24.00;89.90;;;;;;5043861;28;20098;-70
2021/06/08 11:15:48;;;;;;;4.85;1.55;;;24.00;90.70;;;;;;5045879;28;20506;-70
2021/06/08 11:18:21;;;;;;;3.08;1.60;;;24.00;90.60;;;;;;5045939;28;20132;-69
2021/06/08 11:20:55;;;;;;;3.08;1.48;;;24.00;90.30;;;;;;5044489;28;20087;-70
2021/06/08 11:23:34;;;;;;;2.15;1.38;;;24.00;90.10;;;;;;5045701;28;20111;-70
2021/06/08 11:26:02;;;;;;;4.55;1.40;;;24.00;89.90;;;;;;5042906;28;20053;-70
2021/06/08 11:28:44;;;;;;;;;;;24.00;89.60;;;;;;5045624;28;20126;-70
2021/06/08 11:31:12;;;;;;;2.35;1.30;;;24.10;89.90;;;;;;5042269;28;19948;-70
2021/06/08 11:33:47;;;;;;;2.22;1.40;;;24.20;90.20;;;;;;5045600;28;20506;-70
2021/06/08 11:36:21;;;;;;;4.25;1.70;;;24.20;90.10;;;;;;5044115;28;20076;-70
2021/06/08 11:38:52;;;;;;;3.40;1.65;;;24.20;89.80;;;;;;5031000;28;20080;-70
2021/06/08 11:41:20;;;;;;;3.28;1.70;;;24.20;89.60;;;;;;5031047;28;20104;-70
2021/06/08 11:44:00;;;;;;;2.47;1.30;;;24.20;89.70;;;;;;5032711;28;20463;-70
2021/06/08 11:46:33;;;;;;;3.03;1.42;;;24.30;89.80;;;;;;5031034;28;20582;-71
2021/06/08 11:49:13;;;;;;;3.13;1.27;;;24.30;89.90;;;;;;5027471;28;20108;-70
2021/06/08 11:51:47;;;;;;;3.13;1.35;;;24.40;91.10;;;;;;5028533;28;20120;-70
2021/06/08 11:54:16;;;;;;;3.17;1.20;;;24.40;90.40;;;;;;5026733;28;20084;-70
2021/06/08 11:56:43;;;;;;;2.20;1.30;;;24.50;90.10;;;;;;5027335;28;20107;-70
2021/06/08 11:59:10;;;;;;;2.17;1.25;;;24.50;89.90;;;;;;5044171;28;20136;-70
2021/06/08 12:01:41;;;;;;;2.08;1.45;;;24.60;89.80;;;;;;5032481;28;20077;-70
2021/06/08 12:04:08;;;;;;;4.38;1.45;;;24.60;89.50;;;;;;5028497;28;20052;-70
2021/06/08 12:06:58;;;;;;;1.67;1.40;;;24.60;89.30;;;;;;5028930;28;20138;-71
2021/06/08 12:09:27;;;;;;;2.88;1.60;;;24.60;88.90;;;;;;5030768;28;20103;-70
2021/06/08 12:11:56;;;;;;;1.80;1.33;;;24.60;87.70;;;;;;5027540;28;20077;-70
2021/06/08 12:14:25;;;;;;;3.35;1.40;;;24.60;87.20;;;;;;5027371;28;20136;-72
2021/06/08 12:16:54;;;;;;;2.45;1.50;;;24.50;87.60;;;;;;5030201;28;20068;-71
2021/06/08 12:19:29;;;;;;;1.73;1.08;;;24.50;87.30;;;;;;5029804;28;20046;-71
2021/06/08 12:21:57;;;;;;;1.15;0.95;;;24.40;88.60;;;;;;5045277;28;20139;-71
2021/06/08 12:24:25;;;;;;;1.65;1.20;;;24.50;87.80;;;;;;5029391;28;20041;-70
2021/06/08 12:26:58;;;;;;;1.65;1.15;;;24.50;87.70;;;;;;5030094;28;20122;-70
2021/06/08 12:29:26;;;;;;;2.53;1.20;;;24.60;87.60;;;;;;5031263;28;20476;-70
2021/06/08 12:31:54;;;;;;;;;;;24.70;87.50;;;;;;5031864;28;20124;-71
2021/06/08 12:34:25;;;;;;;1.45;1.15;;;24.70;86.00;;;;;;5027304;28;19987;-70
2021/06/08 12:36:54;;;;;;;1.42;1.00;;;24.70;87.10;;;;;;5030695;28;20140;-71
2021/06/08 12:39:28;;;;;;;2.17;1.30;;;24.80;86.90;;;;;;5036382;28;20107;-70
2021/06/08 12:42:15;;;;;;;3.08;1.05;;;24.80;86.10;;;;;;5033671;28;20073;-71
2021/06/08 12:44:45;;;;;;;3.92;1.10;;;24.80;84.20;;;;;;5033340;28;20098;-71
2021/06/08 12:47:22;;;;;;;2.78;1.10;;;24.90;85.00;;;;;;5031564;28;20053;-71
2021/06/08 12:49:50;;;;;;;1.38;0.85;;;24.90;84.50;;;;;;5031312;28;20234;-70
2021/06/08 12:52:20;;;;;;;2.47;1.20;;;24.90;90.00;;;;;;5030868;28;20405;-72
2021/06/08 12:54:51;;;;;;;2.42;1.20;;;24.90;87.50;;;;;;5033595;28;20433;-72
2021/06/08 12:57:31;;;;;;;1.60;1.00;;;25.00;86.40;;;;;;5030938;28;20045;-72
2021/06/08 13:00:07;;;;;;;2.45;1.38;;;25.10;86.30;;;;;;5032510;28;20139;-72
2021/06/08 13:02:35;;;;;;;2.28;1.20;;;25.20;86.10;;;;;;5032668;28;20139;-72
2021/06/08 13:05:08;;;;;;;2.80;1.50;;;25.20;86.10;;;;;;5045634;28;20077;-72
2021/06/08 13:07:39;;;;;;;2.90;1.65;;;25.30;86.00;;;;;;5033971;28;20077;-72